Ocoee, TN

4:06 PM EST on January 25, 2015 (GMT -0500)
Chestuee | Change Station
CLOSE
Current Station
Personal Weather Station
Location: Cleveland, TN
Elevation: 755 ft
Nearby Weather Stations

Elev 755 ft 35.15 °N, 84.73 °W | Updated 3 minutes ago

Clear
Clear
56.3 °F
Feels Like 56.3 °F
N
2.2
Wind Variable Wind from SSE

Today
High -- | Low -- °F
--% Chance of Precip.
Yesterday
High -- | Low -- °F
Precip. -- in
7:42 AM 6:00 PM
Waxing Crescent, 35% visible
Pressure 29.70 in
Visibility 10.0 miles
Clouds Mostly Cloudy 11000 ft
Dew Point 36 °F
Humidity 47%
Rainfall 0.00 in
Snow Depth Not available.
UV 1 out of 12
Pollen .70 out of 12
Air Quality Not available.
Flu Activity Not available.
METAR KRZR 252055Z AUTO 20010KT 10SM BKN110 12/M01 A2970 RMK

More Conditions Fewer Conditions

Pressure 29.70 in
Visibility 10.0 miles
Clouds Mostly Cloudy 11000 ft
Dew Point 36 °F
Humidity 47%
Rainfall 0.00 in
Snow Depth Not available.
UV 1 out of 12
Pollen .70 out of 12
Air Quality Not available.
Flu Activity Not available.
METAR KRZR 252055Z AUTO 20010KT 10SM BKN110 12/M01 A2970 RMK

More Conditions Fewer Conditions

10-Day Weather Forecast

Almanac

Astronomy

Jan. 25, 2015 Rise Set
Actual Time
Civil Twilight
Nautical Twilight
Astronomical Twilight
Moon
Length of Visible Light
Length of Day
Tomorrow will be .
, % of the Moon is Illuminated

Today's Extremes

State Highs State Lows

Community

WunderPhotos

Upload Photos

1,790,047 photos uploaded!

WunderBlogs® & News

Nearby

Air Quality

  Air Quality AQ Index Pollutant
Not available.

Snow Depth

Station Depth Elevation

Earthquake Activity

City Distance Mag. Time & Date
Minimum magnitude displayed is 2.5.

Coastal Water Temperatures

Place Temperature

Nearby Weather Stations